createdAt,value
2019-02-07T00:02:26.581Z,11.70
2019-02-07T00:04:56.468Z,11.43
2019-02-07T00:07:27.207Z,14.17
2019-02-07T00:09:57.109Z,13.47
2019-02-07T00:12:27.149Z,9.80
2019-02-07T00:14:57.609Z,10.57
2019-02-07T00:17:27.581Z,12.63
2019-02-07T00:19:58.904Z,8.87
2019-02-07T00:22:28.484Z,11.03
2019-02-07T00:24:58.457Z,9.87
2019-02-07T00:27:28.930Z,9.83
2019-02-07T00:29:59.705Z,10.30
2019-02-07T00:32:29.710Z,11.30
2019-02-07T00:35:03.369Z,11.23
2019-02-07T00:37:34.271Z,9.90
2019-02-07T00:40:05.717Z,11.17
2019-02-07T00:42:36.093Z,7.53
2019-02-07T00:45:06.712Z,9.33
2019-02-07T00:47:36.434Z,9.73
2019-02-07T00:50:07.770Z,7.80
2019-02-07T00:52:37.389Z,11.33
2019-02-07T00:55:08.278Z,10.33
2019-02-07T00:57:39.349Z,10.10
2019-02-07T01:00:11.798Z,10.70
2019-02-07T01:02:42.065Z,10.73
2019-02-07T01:05:13.981Z,9.77
2019-02-07T01:07:44.537Z,9.63
2019-02-07T01:10:15.537Z,8.97
2019-02-07T01:12:46.858Z,9.00
2019-02-07T01:15:17.254Z,9.97
2019-02-07T01:17:46.909Z,10.70
2019-02-07T01:20:17.624Z,8.53
2019-02-07T01:22:47.905Z,9.17
2019-02-07T01:25:20.303Z,9.80
2019-02-07T01:27:50.157Z,7.70
2019-02-07T01:30:21.369Z,8.90
2019-02-07T01:32:51.646Z,7.90
2019-02-07T01:35:25.376Z,8.17
2019-02-07T01:37:55.333Z,9.23
2019-02-07T01:40:25.320Z,8.53
2019-02-07T01:42:58.781Z,9.00
2019-02-07T01:45:28.901Z,9.67
2019-02-07T01:47:58.801Z,7.10
2019-02-07T01:50:28.649Z,9.97
2019-02-07T01:52:59.609Z,8.47
2019-02-07T01:55:29.601Z,7.63
2019-02-07T01:58:00.080Z,7.37
2019-02-07T02:00:30.976Z,6.10
2019-02-07T02:03:01.345Z,7.30
2019-02-07T02:05:33.097Z,7.53
2019-02-07T02:08:03.021Z,7.47
2019-02-07T02:10:34.502Z,9.23
2019-02-07T02:13:04.849Z,7.80
2019-02-07T02:15:34.624Z,6.03
2019-02-07T02:18:05.407Z,7.50
2019-02-07T02:20:35.769Z,7.10
2019-02-07T02:23:05.741Z,6.23
2019-02-07T02:25:36.500Z,8.57
2019-02-07T02:28:06.525Z,6.93
2019-02-07T02:30:36.873Z,6.97
2019-02-07T02:33:06.791Z,6.53
2019-02-07T02:35:36.688Z,6.97
2019-02-07T02:38:06.760Z,7.57
2019-02-07T02:40:36.862Z,6.27
2019-02-07T02:43:07.305Z,6.00
2019-02-07T02:45:38.046Z,7.47
2019-02-07T02:48:08.537Z,6.87
2019-02-07T02:50:38.542Z,7.87
2019-02-07T02:53:09.821Z,7.90
2019-02-07T02:55:42.270Z,7.53
2019-02-07T02:58:12.204Z,7.60
2019-02-07T03:01:07.078Z,5.90
2019-02-07T03:03:52.889Z,7.70
2019-02-07T03:06:42.900Z,7.17
2019-02-07T03:09:34.566Z,6.80
2019-02-07T03:12:20.577Z,9.23
2019-02-07T03:15:12.258Z,7.03
2019-02-07T03:18:04.186Z,6.93
2019-02-07T03:20:44.689Z,7.53
2019-02-07T03:23:32.465Z,7.03
2019-02-07T03:26:16.312Z,7.90
2019-02-07T03:29:10.733Z,6.97
2019-02-07T03:32:11.607Z,6.00
2019-02-07T03:34:58.902Z,7.47
2019-02-07T03:37:41.022Z,8.83
2019-02-07T03:40:50.237Z,8.87
2019-02-07T03:43:39.322Z,8.17
2019-02-07T03:46:28.349Z,7.27
2019-02-07T03:49:10.977Z,8.47
2019-02-07T03:52:04.070Z,8.50
2019-02-07T03:54:52.781Z,10.20
2019-02-07T03:57:40.363Z,10.67
2019-02-07T04:00:38.378Z,9.53
2019-02-07T04:03:28.865Z,10.27
2019-02-07T04:06:11.524Z,9.33
2019-02-07T04:09:02.749Z,9.83
2019-02-07T04:11:50.497Z,8.80
2019-02-07T04:14:34.845Z,9.00
2019-02-07T04:17:32.189Z,10.97
2019-02-07T04:20:30.118Z,7.73
2019-02-07T04:23:18.761Z,11.93
2019-02-07T04:26:09.790Z,7.10
2019-02-07T04:28:58.107Z,9.47
2019-02-07T04:31:52.873Z,9.00
2019-02-07T04:34:40.846Z,12.57
2019-02-07T04:37:35.479Z,10.57
2019-02-07T04:40:25.389Z,13.13
2019-02-07T04:43:13.370Z,9.93
2019-02-07T04:46:00.797Z,10.70
2019-02-07T04:48:44.129Z,11.23
2019-02-07T04:51:39.780Z,12.57
2019-02-07T04:54:49.500Z,9.80
2019-02-07T04:57:38.828Z,11.73
2019-02-07T05:00:36.419Z,11.07
2019-02-07T05:03:26.194Z,11.10
2019-02-07T05:06:04.861Z,12.03
2019-02-07T05:08:45.218Z,10.43
2019-02-07T05:11:35.862Z,12.30
2019-02-07T05:14:43.185Z,12.73
2019-02-07T05:17:35.273Z,11.80
2019-02-07T05:20:24.288Z,15.87
2019-02-07T05:23:20.195Z,9.90
2019-02-07T05:26:08.788Z,10.73
2019-02-07T05:28:56.434Z,13.37
2019-02-07T05:31:38.790Z,12.57
2019-02-07T05:34:28.030Z,10.90
2019-02-07T05:37:17.071Z,12.40
2019-02-07T05:40:11.430Z,13.13
2019-02-07T05:42:59.017Z,12.80
2019-02-07T05:45:42.217Z,9.77
2019-02-07T05:48:27.349Z,8.73
2019-02-07T05:51:19.302Z,10.27
2019-02-07T05:54:15.677Z,8.27
2019-02-07T05:57:04.881Z,15.10
2019-02-07T05:59:54.093Z,15.43
2019-02-07T06:02:42.139Z,11.03
2019-02-07T06:05:34.249Z,10.43
2019-02-07T06:08:28.440Z,12.97
2019-02-07T06:11:16.604Z,10.37
2019-02-07T06:14:15.189Z,11.97
2019-02-07T06:17:03.121Z,9.57
2019-02-07T06:19:54.266Z,9.83
2019-02-07T06:22:48.937Z,9.73
2019-02-07T06:25:43.413Z,8.97
2019-02-07T06:28:41.377Z,10.77
2019-02-07T06:31:25.724Z,12.20
2019-02-07T06:34:13.193Z,9.13
2019-02-07T06:37:06.802Z,9.20
2019-02-07T06:39:47.905Z,8.17
2019-02-07T06:42:36.326Z,9.23
2019-02-07T06:45:34.785Z,7.97
2019-02-07T06:48:36.273Z,9.50
2019-02-07T06:51:25.425Z,7.40
2019-02-07T06:54:21.557Z,9.27
2019-02-07T06:57:13.568Z,6.80
2019-02-07T07:00:09.788Z,7.00
2019-02-07T07:02:56.181Z,9.30
2019-02-07T07:05:43.667Z,9.63
2019-02-07T07:08:36.350Z,7.43
2019-02-07T07:11:33.873Z,9.47
2019-02-07T07:14:35.765Z,10.63
2019-02-07T07:17:26.573Z,8.55
2019-02-07T07:20:22.747Z,7.47
2019-02-07T07:23:14.208Z,7.63
2019-02-07T07:25:55.534Z,8.63
2019-02-07T07:28:42.641Z,8.73
2019-02-07T07:31:37.129Z,6.37
2019-02-07T07:34:32.981Z,7.00
2019-02-07T07:37:20.198Z,4.33
2019-02-07T07:40:10.749Z,4.47
2019-02-07T07:43:00.226Z,7.93
2019-02-07T07:45:48.625Z,5.50
2019-02-07T07:48:40.152Z,3.77
2019-02-07T07:51:31.924Z,4.60
2019-02-07T07:54:35.705Z,5.20
2019-02-07T07:57:43.289Z,4.37
2019-02-07T08:00:31.125Z,5.33
2019-02-07T08:03:14.709Z,5.13
2019-02-07T08:06:06.813Z,3.70
2019-02-07T08:09:01.730Z,3.03
2019-02-07T08:12:02.488Z,3.37
2019-02-07T08:14:52.567Z,3.60
2019-02-07T08:17:47.759Z,2.90
2019-02-07T08:20:42.179Z,2.83
2019-02-07T08:23:29.190Z,4.00
2019-02-07T08:29:29.149Z,2.90
2019-02-07T08:32:17.605Z,3.93
2019-02-07T08:35:07.226Z,4.00
2019-02-07T08:38:11.477Z,2.80
2019-02-07T08:41:18.317Z,4.60
2019-02-07T08:44:05.936Z,2.90
2019-02-07T08:47:10.585Z,3.30
2019-02-07T08:50:14.029Z,2.63
2019-02-07T08:55:58.257Z,4.80
2019-02-07T08:58:46.413Z,4.00
2019-02-07T09:01:35.725Z,3.83
2019-02-07T09:04:19.960Z,2.40
2019-02-07T09:07:27.455Z,3.23
2019-02-07T09:10:28.953Z,2.00
2019-02-07T09:13:24.105Z,3.17
2019-02-07T09:16:15.889Z,3.07
2019-02-07T09:19:12.061Z,2.10
2019-02-07T09:22:07.180Z,2.17
2019-02-07T09:24:56.260Z,2.83
2019-02-07T09:27:48.529Z,4.00
2019-02-07T09:30:36.287Z,2.30
2019-02-07T09:33:38.398Z,2.00
2019-02-07T09:36:45.489Z,1.70
2019-02-07T09:39:32.158Z,3.30
2019-02-07T09:42:14.517Z,1.80
2019-02-07T09:45:01.905Z,2.63
2019-02-07T09:47:54.253Z,2.37
2019-02-07T09:50:48.229Z,2.40
2019-02-07T09:53:39.346Z,3.67
2019-02-07T09:56:27.945Z,3.43
2019-02-07T09:59:20.485Z,4.63
2019-02-07T10:02:19.261Z,3.50
2019-02-07T10:05:08.405Z,2.37
2019-02-07T10:07:56.704Z,2.90
2019-02-07T10:11:04.443Z,3.53
2019-02-07T10:13:57.477Z,3.37
2019-02-07T10:16:46.335Z,2.43
2019-02-07T10:19:38.042Z,2.20
2019-02-07T10:22:22.185Z,2.63
2019-02-07T10:25:03.485Z,2.57
2019-02-07T10:28:01.989Z,5.53
2019-02-07T10:30:51.962Z,3.03
2019-02-07T10:33:43.881Z,6.87
2019-02-07T10:36:25.621Z,4.00
2019-02-07T10:39:22.399Z,4.30
2019-02-07T10:42:22.752Z,3.40
2019-02-07T10:45:12.890Z,4.80
2019-02-07T10:48:00.465Z,2.73
2019-02-07T10:50:43.888Z,4.43
2019-02-07T10:53:28.242Z,7.10
2019-02-07T10:56:16.012Z,4.43
2019-02-07T10:59:07.929Z,3.33
2019-02-07T11:02:02.973Z,3.10
2019-02-07T11:04:50.291Z,2.40
2019-02-07T11:07:51.219Z,4.13
2019-02-07T11:10:54.983Z,2.33
2019-02-07T11:13:42.576Z,2.50
2019-02-07T11:16:40.842Z,3.63
2019-02-07T11:19:26.133Z,3.07
2019-02-07T11:22:30.413Z,2.57
2019-02-07T11:25:24.523Z,2.77
2019-02-07T11:28:16.681Z,3.30
2019-02-07T11:31:12.373Z,2.30
2019-02-07T11:33:59.790Z,3.23
2019-02-07T11:36:40.789Z,2.67
2019-02-07T11:39:35.473Z,3.03
2019-02-07T11:42:16.777Z,2.50
2019-02-07T11:45:17.853Z,1.87
2019-02-07T11:48:05.565Z,2.13
2019-02-07T11:50:53.438Z,2.20
2019-02-07T11:53:29.046Z,3.90
2019-02-07T11:56:17.469Z,3.67
2019-02-07T11:59:15.533Z,4.17
2019-02-07T12:02:11.457Z,4.47
2019-02-07T12:05:09.726Z,4.77
2019-02-07T12:08:02.049Z,5.20
2019-02-07T12:10:50.713Z,3.70
2019-02-07T12:13:42.421Z,4.73
2019-02-07T12:16:31.476Z,2.90
2019-02-07T12:19:25.373Z,3.93
2019-02-07T12:22:33.868Z,4.93
2019-02-07T12:25:31.357Z,2.80
2019-02-07T12:28:18.885Z,4.73
2019-02-07T12:31:07.662Z,6.70
2019-02-07T12:33:56.356Z,5.80
2019-02-07T12:36:35.937Z,3.80
2019-02-07T12:39:22.837Z,2.47
2019-02-07T12:42:11.261Z,5.17
2019-02-07T12:45:05.593Z,5.00
2019-02-07T12:48:06.392Z,3.00
2019-02-07T12:50:54.201Z,4.43
2019-02-07T12:53:42.185Z,4.23
2019-02-07T12:56:45.869Z,2.50
2019-02-07T12:59:29.203Z,2.33
2019-02-07T13:02:20.041Z,6.27
2019-02-07T13:05:17.607Z,4.27
2019-02-07T13:08:05.879Z,2.57
2019-02-07T13:10:54.981Z,6.10
2019-02-07T13:13:43.087Z,9.77
2019-02-07T13:16:32.187Z,5.50
2019-02-07T13:19:40.210Z,8.30
2019-02-07T13:22:15.517Z,3.33
2019-02-07T13:25:04.452Z,3.77
2019-02-07T13:27:56.409Z,5.57
2019-02-07T13:30:44.643Z,4.20
2019-02-07T13:33:33.786Z,5.27
2019-02-07T13:36:37.670Z,4.40
2019-02-07T13:39:33.749Z,6.00
2019-02-07T13:42:23.393Z,6.50
2019-02-07T13:45:19.515Z,5.83
2019-02-07T13:48:17.937Z,6.87
2019-02-07T13:51:06.120Z,7.57
2019-02-07T13:53:47.596Z,6.40
2019-02-07T13:56:34.868Z,6.27
2019-02-07T13:59:23.283Z,5.83
2019-02-07T14:02:10.824Z,8.27
2019-02-07T14:05:05.301Z,6.57
2019-02-07T14:07:50.618Z,7.70
2019-02-07T14:10:58.089Z,6.00
2019-02-07T14:13:47.245Z,6.10
2019-02-07T14:16:41.804Z,5.57
2019-02-07T14:19:49.102Z,8.27
2019-02-07T14:22:36.529Z,7.17
2019-02-07T14:25:31.476Z,16.03
2019-02-07T14:28:26.505Z,6.30
2019-02-07T14:31:14.045Z,2.83
2019-02-07T14:34:18.074Z,6.47
2019-02-07T14:37:06.441Z,4.67
2019-02-07T14:39:58.373Z,3.90
2019-02-07T14:42:46.645Z,5.93
2019-02-07T14:45:25.970Z,7.23
2019-02-07T14:47:56.991Z,12.83
2019-02-07T14:50:28.850Z,7.77
2019-02-07T14:53:02.086Z,7.47
2019-02-07T14:55:33.113Z,7.87
2019-02-07T14:58:03.110Z,7.97
2019-02-07T15:00:33.053Z,7.90
2019-02-07T15:03:02.777Z,17.00
2019-02-07T15:05:32.304Z,7.83
2019-02-07T15:08:02.836Z,7.77
2019-02-07T15:10:33.984Z,9.07
2019-02-07T15:13:04.601Z,10.97
2019-02-07T15:15:34.277Z,11.07
2019-02-07T15:18:04.731Z,9.37
2019-02-07T15:20:34.464Z,7.37
2019-02-07T15:23:04.341Z,9.63
2019-02-07T15:25:34.873Z,9.77
2019-02-07T15:28:08.117Z,11.87
2019-02-07T15:30:37.846Z,10.97
2019-02-07T15:33:08.020Z,10.50
2019-02-07T15:35:40.060Z,8.03
2019-02-07T15:38:09.632Z,9.60
2019-02-07T15:40:39.554Z,9.40
2019-02-07T15:43:09.945Z,5.40
2019-02-07T15:45:41.429Z,9.77
2019-02-07T15:48:12.347Z,8.33
2019-02-07T15:50:45.336Z,6.97
2019-02-07T15:53:15.763Z,10.57
2019-02-07T15:55:45.821Z,7.13
2019-02-07T15:58:15.774Z,4.40
2019-02-07T16:00:52.765Z,10.70
2019-02-07T16:03:37.882Z,9.80
2019-02-07T16:06:08.001Z,7.80
2019-02-07T16:08:37.925Z,7.73
2019-02-07T16:11:08.892Z,9.87
2019-02-07T16:13:38.889Z,5.10
2019-02-07T16:16:09.422Z,6.83
2019-02-07T16:18:41.848Z,6.37
2019-02-07T16:21:12.347Z,8.47
2019-02-07T16:23:42.705Z,9.00
2019-02-07T16:26:13.058Z,7.87
2019-02-07T16:28:43.980Z,6.23
2019-02-07T16:31:14.402Z,7.87
2019-02-07T16:33:44.241Z,11.13
2019-02-07T16:36:15.021Z,7.17
2019-02-07T16:38:47.077Z,8.53
2019-02-07T16:41:17.012Z,6.27
2019-02-07T16:43:48.972Z,8.53
2019-02-07T16:46:19.953Z,6.40
2019-02-07T16:48:52.482Z,4.97
2019-02-07T16:51:23.288Z,4.43
2019-02-07T16:53:54.297Z,6.63
2019-02-07T16:56:32.505Z,5.53
2019-02-07T16:59:01.757Z,5.43
2019-02-07T17:01:31.927Z,5.73
2019-02-07T17:04:01.625Z,5.93
2019-02-07T17:06:32.541Z,9.10
2019-02-07T17:09:04.497Z,5.60
2019-02-07T17:11:35.675Z,4.67
2019-02-07T17:14:08.377Z,5.30
2019-02-07T17:16:38.143Z,5.57
2019-02-07T17:19:08.006Z,6.77
2019-02-07T17:21:39.332Z,4.30
2019-02-07T17:24:09.353Z,5.63
2019-02-07T17:26:40.106Z,4.00
2019-02-07T17:29:09.998Z,10.57
2019-02-07T17:31:41.257Z,5.77
2019-02-07T17:34:11.584Z,9.20
2019-02-07T17:36:43.190Z,7.50
2019-02-07T17:39:14.677Z,5.33
2019-02-07T17:41:45.889Z,6.47
2019-02-07T17:44:16.310Z,6.40
2019-02-07T17:46:45.994Z,4.87
2019-02-07T17:49:15.700Z,6.70
2019-02-07T17:51:45.483Z,7.27
2019-02-07T17:54:18.898Z,7.73
2019-02-07T17:56:50.474Z,5.30
2019-02-07T17:59:23.833Z,5.27
2019-02-07T18:01:53.941Z,9.53
2019-02-07T18:04:24.013Z,10.57
2019-02-07T18:06:57.632Z,9.00
2019-02-07T18:09:28.199Z,12.27
2019-02-07T18:11:58.422Z,12.50
2019-02-07T18:14:31.781Z,12.07
2019-02-07T18:17:01.667Z,8.17
2019-02-07T18:19:31.507Z,7.30
2019-02-07T18:22:01.558Z,11.57
2019-02-07T18:24:32.165Z,6.77
2019-02-07T18:27:02.569Z,10.30
2019-02-07T18:29:34.263Z,5.87
2019-02-07T18:32:03.889Z,3.90
2019-02-07T18:34:37.661Z,3.63
2019-02-07T18:37:07.985Z,6.13
2019-02-07T18:39:37.921Z,7.40
2019-02-07T18:42:07.709Z,4.33
2019-02-07T18:44:37.709Z,4.70
2019-02-07T18:47:12.229Z,6.00
2019-02-07T18:49:42.824Z,7.57
2019-02-07T18:52:14.074Z,8.17
2019-02-07T18:58:23.647Z,5.47
2019-02-07T19:00:56.249Z,5.53
2019-02-07T19:03:26.265Z,6.13
2019-02-07T19:05:57.285Z,5.57
2019-02-07T19:08:28.525Z,5.50
2019-02-07T19:10:58.589Z,5.43
2019-02-07T19:13:28.697Z,5.80
2019-02-07T19:16:03.918Z,3.47
2019-02-07T19:18:33.819Z,4.43
2019-02-07T19:21:04.630Z,3.77
2019-02-07T19:23:36.214Z,4.67
2019-02-07T19:26:13.449Z,3.87
2019-02-07T19:28:45.233Z,3.40
2019-02-07T19:31:16.782Z,2.93
2019-02-07T19:33:47.461Z,2.00
2019-02-07T19:36:18.613Z,2.67
2019-02-07T19:38:48.607Z,2.90
2019-02-07T19:41:38.778Z,2.63
2019-02-07T19:44:11.540Z,1.77
2019-02-07T19:46:44.260Z,1.40
2019-02-07T19:49:14.678Z,2.17
2019-02-07T19:51:46.795Z,1.27
2019-02-07T19:54:20.761Z,1.43
2019-02-07T19:56:50.214Z,1.47
2019-02-07T19:59:25.332Z,1.50
2019-02-07T20:01:55.941Z,1.87
2019-02-07T20:04:27.928Z,1.67
2019-02-07T20:06:57.475Z,1.60
2019-02-07T20:09:28.172Z,2.47
2019-02-07T20:11:57.664Z,2.83
2019-02-07T20:14:29.305Z,1.10
2019-02-07T20:17:00.895Z,1.00
2019-02-07T20:19:31.542Z,1.50
2019-02-07T20:22:01.909Z,1.67
2019-02-07T20:24:33.265Z,2.80
2019-02-07T20:27:05.053Z,1.63
2019-02-07T20:29:35.174Z,1.20
2019-02-07T20:32:05.935Z,1.50
2019-02-07T20:34:36.213Z,2.47
2019-02-07T20:37:07.435Z,1.37
2019-02-07T20:39:38.557Z,1.67
2019-02-07T20:42:09.140Z,1.40
2019-02-07T20:44:39.306Z,1.70
2019-02-07T20:47:13.357Z,2.47
2019-02-07T20:49:43.857Z,1.77
2019-02-07T20:52:14.875Z,2.77
2019-02-07T20:54:45.336Z,2.50
2019-02-07T20:57:15.320Z,2.97
2019-02-07T20:59:45.750Z,2.80
2019-02-07T21:02:16.488Z,2.40
2019-02-07T21:04:46.222Z,2.47
2019-02-07T21:07:16.526Z,3.70
2019-02-07T21:09:47.006Z,2.77
2019-02-07T21:12:17.594Z,3.13
2019-02-07T21:14:47.701Z,3.93
2019-02-07T21:17:18.097Z,4.47
2019-02-07T21:19:48.053Z,3.87
2019-02-07T21:22:18.017Z,4.40
2019-02-07T21:24:48.406Z,4.47
2019-02-07T21:27:18.499Z,5.73
2019-02-07T21:29:48.448Z,6.93
2019-02-07T21:32:18.826Z,9.55
2019-02-07T21:34:49.305Z,10.03
2019-02-07T21:37:19.453Z,12.47
2019-02-07T21:39:49.545Z,12.43
2019-02-07T21:42:18.926Z,14.33
2019-02-07T21:44:48.621Z,14.07
2019-02-07T21:47:19.037Z,15.83
2019-02-07T21:49:49.597Z,18.73
2019-02-07T21:52:20.697Z,19.90
2019-02-07T21:54:51.056Z,22.30
2019-02-07T21:57:21.744Z,20.43
2019-02-07T21:59:52.193Z,18.13
2019-02-07T22:02:22.194Z,20.70
2019-02-07T22:04:51.757Z,22.13
2019-02-07T22:07:24.045Z,20.83
2019-02-07T22:09:54.273Z,19.90
2019-02-07T22:12:24.369Z,17.90
2019-02-07T22:14:53.933Z,20.60
2019-02-07T22:17:25.741Z,19.43
2019-02-07T22:19:56.613Z,19.87
2019-02-07T22:22:27.906Z,20.97
2019-02-07T22:24:57.896Z,18.73
2019-02-07T22:27:27.647Z,18.13
2019-02-07T22:29:58.146Z,19.03
2019-02-07T22:32:28.360Z,19.03
2019-02-07T22:34:57.986Z,18.70
2019-02-07T22:37:28.481Z,17.07
2019-02-07T22:39:58.140Z,19.77
2019-02-07T22:42:28.508Z,17.80
2019-02-07T22:44:58.286Z,20.63
2019-02-07T22:47:27.865Z,17.63
2019-02-07T22:49:58.268Z,17.30
2019-02-07T22:52:27.619Z,18.67
2019-02-07T22:54:57.669Z,17.40
2019-02-07T22:57:27.667Z,16.30
2019-02-07T22:59:57.600Z,17.17
2019-02-07T23:02:26.926Z,18.70
2019-02-07T23:04:57.321Z,15.77
2019-02-07T23:07:26.732Z,17.50
2019-02-07T23:09:56.749Z,15.93
2019-02-07T23:12:27.029Z,16.90
2019-02-07T23:14:56.842Z,17.07
2019-02-07T23:17:26.985Z,19.20
2019-02-07T23:19:57.701Z,18.33
2019-02-07T23:22:28.604Z,13.07
2019-02-07T23:24:58.274Z,15.13
2019-02-07T23:27:28.672Z,16.70
2019-02-07T23:29:59.090Z,15.03
2019-02-07T23:32:28.904Z,17.47
2019-02-07T23:34:59.454Z,17.53
2019-02-07T23:37:29.845Z,13.80
2019-02-07T23:39:59.913Z,14.13
2019-02-07T23:42:29.940Z,13.10
2019-02-07T23:44:59.697Z,13.30
2019-02-07T23:47:29.849Z,12.33
2019-02-07T23:49:59.725Z,12.90
2019-02-07T23:52:30.071Z,13.33
2019-02-07T23:55:00.449Z,11.80
2019-02-07T23:57:30.470Z,12.53
